ěÝzenÝ letovÚho provozu ╚eskÚ republiky
Letiste: LKCV Aktualizace: 29.05.2023 13:59:38  UTC
 METAR LKCV 29.05. 14:00 ...
METAR LKCV 291400Z 04008KT 010V080 CAVOK 23/06 Q1018 NOSIG RMK BLU BLU=
 TAF LKCV 29.05. 11:00 ...
TAF LKCV 291100Z 2912/3012 02007KT CAVOK      TEMPO 2912/2918 04013KT      PROB30 TEMPO 2912/2918 05007G17KT      BECMG 2921/2923 32004KT      BECMG 3009/3012 04009KT=